createdAt,value
2023-05-25T01:23:15.079Z,3.20
2023-05-25T01:32:52.028Z,3.20
2023-05-25T01:36:12.282Z,3.60
2023-05-25T01:38:52.571Z,2.70
2023-05-25T01:46:38.076Z,2.90
2023-05-25T01:49:29.930Z,2.50
2023-05-25T01:52:25.579Z,2.50
2023-05-25T01:55:11.790Z,3.10
2023-05-25T01:57:51.894Z,2.50
2023-05-25T02:00:23.921Z,2.50
2023-05-25T02:03:28.313Z,2.60
2023-05-25T02:06:02.329Z,2.80
2023-05-25T02:09:00.528Z,3.00
2023-05-25T02:11:37.286Z,3.60
2023-05-25T02:24:38.078Z,3.50
2023-05-25T02:36:10.387Z,3.40
2023-05-25T02:38:56.884Z,3.90
2023-05-25T02:46:48.154Z,3.80
2023-05-25T03:21:44.691Z,3.00
2023-05-25T03:24:17.061Z,3.20
2023-05-25T03:27:02.405Z,3.10
2023-05-25T03:29:34.143Z,3.10
2023-05-25T03:38:27.477Z,3.20
2023-05-25T03:41:01.322Z,3.50
2023-05-25T03:43:53.387Z,3.80
2023-05-25T03:47:41.909Z,3.80
2023-05-25T03:50:31.772Z,3.60
2023-05-25T03:53:08.849Z,4.20
2023-05-25T03:56:14.272Z,4.00
2023-05-25T03:59:14.141Z,4.50
2023-05-25T04:01:51.623Z,4.90
2023-05-25T04:04:25.029Z,5.30
2023-05-25T04:19:56.164Z,4.80
2023-05-25T04:22:31.167Z,5.60
2023-05-25T04:29:45.218Z,5.90
2023-05-25T04:33:05.319Z,5.10
2023-05-25T04:35:54.588Z,5.50
2023-05-25T04:38:31.263Z,7.70
2023-05-25T04:41:06.470Z,7.20
2023-05-25T04:43:40.338Z,6.00
2023-05-25T04:46:16.880Z,5.70
2023-05-25T04:48:56.754Z,5.20
2023-05-25T04:51:46.092Z,6.50
2023-05-25T04:54:44.548Z,5.40
2023-05-25T04:57:23.820Z,5.40
2023-05-25T05:00:14.073Z,5.80
2023-05-25T05:03:09.769Z,6.00
2023-05-25T05:05:43.461Z,5.60
2023-05-25T05:08:53.519Z,5.40
2023-05-25T05:11:51.386Z,5.90
2023-05-25T05:14:22.642Z,6.10
2023-05-25T05:17:16.926Z,5.10
2023-05-25T05:20:13.290Z,5.40
2023-05-25T05:24:05.419Z,5.60
2023-05-25T05:26:56.716Z,5.30
2023-05-25T05:33:46.912Z,5.50
2023-05-25T05:36:24.537Z,5.80
2023-05-25T05:39:08.990Z,5.70
2023-05-25T05:41:46.801Z,5.60
2023-05-25T05:44:17.996Z,5.70
2023-05-25T05:47:01.171Z,5.60
2023-05-25T05:49:48.494Z,6.40
2023-05-25T05:52:31.654Z,6.00
2023-05-25T05:55:01.134Z,6.00
2023-05-25T05:57:33.902Z,5.90
2023-05-25T06:00:07.979Z,5.70
2023-05-25T06:03:37.133Z,6.20
2023-05-25T06:06:21.179Z,5.60
2023-05-25T06:09:18.676Z,5.50
2023-05-25T06:11:47.973Z,5.40
2023-05-25T06:14:26.050Z,4.70
2023-05-25T06:17:03.898Z,5.40
2023-05-25T06:19:35.890Z,5.80
2023-05-25T06:22:13.896Z,5.20
2023-05-25T06:25:09.983Z,6.00
2023-05-25T06:27:55.948Z,5.20
2023-05-25T06:30:49.194Z,4.50
2023-05-25T06:33:22.838Z,4.40
2023-05-25T06:36:06.580Z,4.60
2023-05-25T06:38:52.306Z,3.80
2023-05-25T06:41:25.781Z,4.20
2023-05-25T06:44:33.177Z,4.00
2023-05-25T06:47:37.062Z,4.60
2023-05-25T06:50:53.161Z,4.90
2023-05-25T06:53:36.363Z,4.70
2023-05-25T06:56:17.554Z,5.00
2023-05-25T06:58:56.423Z,4.40
2023-05-25T07:01:42.450Z,5.00
2023-05-25T07:04:13.291Z,4.90
2023-05-25T07:06:49.277Z,4.40
2023-05-25T07:09:30.204Z,5.10
2023-05-25T07:12:10.161Z,5.50
2023-05-25T07:14:45.817Z,5.00
2023-05-25T07:18:38.587Z,5.20
2023-05-25T07:21:12.311Z,5.10
2023-05-25T07:24:13.243Z,5.80
2023-05-25T07:26:52.284Z,5.80
2023-05-25T07:29:27.639Z,5.70
2023-05-25T07:32:19.559Z,4.60
2023-05-25T07:37:31.567Z,6.50
2023-05-25T07:40:19.321Z,5.50
2023-05-25T07:42:52.559Z,6.20
2023-05-25T07:48:19.245Z,5.70
2023-05-25T07:50:55.662Z,5.50
2023-05-25T07:53:34.410Z,5.60
2023-05-25T07:56:14.789Z,6.00
2023-05-25T07:58:45.847Z,5.50
2023-05-25T08:03:50.275Z,5.80
2023-05-25T08:06:19.265Z,5.70
2023-05-25T08:09:00.766Z,6.40
2023-05-25T08:11:39.606Z,6.50
2023-05-25T08:14:13.250Z,5.30
2023-05-25T08:22:45.321Z,5.20
2023-05-25T08:25:28.749Z,5.20
2023-05-25T08:28:03.114Z,5.30
2023-05-25T08:30:43.934Z,6.20
2023-05-25T08:33:20.937Z,6.30
2023-05-25T08:36:01.254Z,6.50
2023-05-25T08:38:34.960Z,6.10
2023-05-25T08:41:08.302Z,6.50
2023-05-25T08:43:42.381Z,5.40
2023-05-25T08:46:17.590Z,5.40
2023-05-25T08:48:54.690Z,4.80
2023-05-25T08:51:33.549Z,5.20
2023-05-25T08:54:13.955Z,5.20
2023-05-25T08:57:05.075Z,4.40
2023-05-25T09:00:11.869Z,4.50
2023-05-25T09:03:51.515Z,4.50
2023-05-25T09:06:24.922Z,4.30
2023-05-25T09:08:56.158Z,4.70
2023-05-25T09:11:38.986Z,4.00
2023-05-25T09:14:28.600Z,4.60
2023-05-25T09:17:04.153Z,4.40
2023-05-25T09:19:45.509Z,4.20
2023-05-25T09:25:06.906Z,4.20
2023-05-25T09:27:48.282Z,4.00
2023-05-25T09:30:36.202Z,4.60
2023-05-25T09:33:20.658Z,4.80
2023-05-25T09:36:01.388Z,3.80
2023-05-25T09:42:05.423Z,4.90
2023-05-25T09:44:43.515Z,4.60
2023-05-25T09:47:23.535Z,4.30
2023-05-25T09:50:07.559Z,4.10
2023-05-25T09:53:02.188Z,4.20
2023-05-25T09:56:06.041Z,3.50
2023-05-25T10:03:27.296Z,2.70
2023-05-25T10:06:02.417Z,3.30
2023-05-25T10:08:36.520Z,3.60
2023-05-25T10:11:21.508Z,3.60
2023-05-25T10:15:07.280Z,4.00
2023-05-25T10:18:12.851Z,4.30
2023-05-25T10:20:45.268Z,4.70
2023-05-25T10:23:34.077Z,5.10
2023-05-25T10:26:33.977Z,4.20
2023-05-25T10:29:12.577Z,4.20
2023-05-25T10:31:55.213Z,5.30
2023-05-25T10:34:39.331Z,4.80
2023-05-25T10:37:16.083Z,5.30
2023-05-25T10:40:10.555Z,4.70
2023-05-25T10:42:48.476Z,4.50
2023-05-25T10:45:27.125Z,4.90
2023-05-25T10:48:09.925Z,4.60
2023-05-25T10:53:50.521Z,5.30
2023-05-25T10:56:33.462Z,4.40
2023-05-25T10:59:14.374Z,4.30
2023-05-25T11:02:06.853Z,4.90
2023-05-25T11:06:08.272Z,5.60
2023-05-25T11:09:03.317Z,3.40
2023-05-25T11:12:05.249Z,3.70
2023-05-25T11:14:40.978Z,3.80
2023-05-25T11:17:43.746Z,3.60
2023-05-25T11:20:42.461Z,3.60
2023-05-25T11:23:41.074Z,3.50
2023-05-25T11:26:17.573Z,2.90
2023-05-25T11:29:00.873Z,3.20
2023-05-25T11:31:43.618Z,3.50
2023-05-25T11:34:39.469Z,4.10
2023-05-25T11:37:15.954Z,4.00
2023-05-25T11:39:54.727Z,4.20
2023-05-25T11:42:30.092Z,4.40
2023-05-25T11:45:21.432Z,4.10
2023-05-25T11:47:57.753Z,3.90
2023-05-25T11:50:35.549Z,3.00
2023-05-25T11:53:34.654Z,2.90
2023-05-25T11:56:36.363Z,3.40
2023-05-25T11:59:17.847Z,3.70
2023-05-25T12:02:24.460Z,3.30
2023-05-25T12:05:07.491Z,3.00
2023-05-25T12:08:00.678Z,2.70
2023-05-25T12:13:14.986Z,2.80
2023-05-25T12:15:52.718Z,2.50
2023-05-25T12:20:12.248Z,2.70
2023-05-25T12:22:52.186Z,2.80
2023-05-25T12:25:24.576Z,3.10
2023-05-25T12:28:26.657Z,2.70
2023-05-25T12:34:38.329Z,2.70
2023-05-25T12:37:26.940Z,2.40
2023-05-25T12:40:29.112Z,2.80
2023-05-25T12:43:35.225Z,3.00
2023-05-25T12:46:52.287Z,3.20
2023-05-25T12:53:44.504Z,2.80
2023-05-25T12:56:41.097Z,3.30
2023-05-25T12:59:23.836Z,2.60
2023-05-25T13:02:02.947Z,2.70
2023-05-25T13:04:38.311Z,2.40
2023-05-25T13:07:15.516Z,2.20
2023-05-25T13:10:18.090Z,2.60
2023-05-25T13:12:52.706Z,2.90
2023-05-25T13:15:32.040Z,3.00
2023-05-25T13:18:15.107Z,2.90
2023-05-25T13:25:23.095Z,3.00
2023-05-25T13:28:25.363Z,3.30
2023-05-25T13:31:39.470Z,6.80
2023-05-25T13:34:25.254Z,3.60
2023-05-25T13:37:00.970Z,2.80
2023-05-25T13:39:37.984Z,2.90
2023-05-25T13:42:44.101Z,2.50
2023-05-25T13:45:17.781Z,2.60
2023-05-25T13:47:48.398Z,2.90
2023-05-25T13:50:35.118Z,3.00
2023-05-25T13:53:26.429Z,2.80
2023-05-25T13:56:01.700Z,2.70
2023-05-25T13:59:08.680Z,2.60
2023-05-25T14:01:45.261Z,3.10
2023-05-25T14:04:23.853Z,3.30
2023-05-25T14:07:11.093Z,3.30
2023-05-25T14:10:13.169Z,3.20
2023-05-25T14:13:13.328Z,3.20
2023-05-25T14:15:57.831Z,3.10
2023-05-25T14:18:39.517Z,3.00
2023-05-25T14:21:21.562Z,3.30
2023-05-25T14:23:54.644Z,3.70
2023-05-25T14:26:27.978Z,3.50
2023-05-25T14:29:03.448Z,3.10
2023-05-25T14:32:16.155Z,3.00
2023-05-25T14:35:29.897Z,3.70
2023-05-25T14:39:15.102Z,3.40
2023-05-25T14:41:56.052Z,3.40
2023-05-25T14:44:35.975Z,3.40
2023-05-25T14:47:55.530Z,2.90
2023-05-25T14:50:48.869Z,3.30
2023-05-25T14:54:05.987Z,3.60
2023-05-25T14:57:52.853Z,3.80
2023-05-25T15:00:46.712Z,4.10
2023-05-25T15:03:41.340Z,4.10
2023-05-25T15:06:23.166Z,3.70
2023-05-25T15:09:02.699Z,4.50
2023-05-25T15:26:47.551Z,3.30
2023-05-25T15:29:24.329Z,3.10
2023-05-25T15:31:55.950Z,3.20
2023-05-25T15:34:41.151Z,3.50
2023-05-25T15:37:38.526Z,4.40
2023-05-25T15:40:13.000Z,3.90
2023-05-25T15:43:22.064Z,3.10
2023-05-25T15:46:21.322Z,3.60
2023-05-25T15:48:57.212Z,3.70
2023-05-25T15:52:09.657Z,4.00
2023-05-25T15:57:36.953Z,3.50
2023-05-25T16:00:30.719Z,3.70
2023-05-25T16:03:35.472Z,3.10
2023-05-25T16:07:18.646Z,3.70
2023-05-25T16:11:00.348Z,3.30
2023-05-25T16:13:55.369Z,4.10
2023-05-25T16:16:48.047Z,2.80
2023-05-25T16:19:26.357Z,3.50
2023-05-25T16:22:26.808Z,3.50
2023-05-25T16:25:36.482Z,2.80
2023-05-25T16:28:16.793Z,2.90
2023-05-25T16:35:12.724Z,3.00
2023-05-25T16:37:52.991Z,2.30
2023-05-25T16:40:40.364Z,3.00
2023-05-25T16:43:17.601Z,2.80
2023-05-25T16:48:34.352Z,2.60
2023-05-25T16:51:17.702Z,2.30
2023-05-25T16:54:04.867Z,2.70
2023-05-25T16:56:41.234Z,2.90
2023-05-25T16:59:18.920Z,2.60
2023-05-25T17:02:03.927Z,3.20
2023-05-25T17:04:53.153Z,3.10
2023-05-25T17:07:42.629Z,2.90
2023-05-25T17:10:23.122Z,3.00
2023-05-25T17:13:04.744Z,3.30
2023-05-25T17:15:44.035Z,3.10
2023-05-25T17:18:39.494Z,3.00
2023-05-25T17:22:15.856Z,2.30
2023-05-25T17:25:34.287Z,2.60
2023-05-25T17:28:12.945Z,3.50
2023-05-25T17:31:00.512Z,2.90
2023-05-25T17:33:43.628Z,2.80
2023-05-25T17:36:26.440Z,3.10
2023-05-25T17:43:44.397Z,2.50
2023-05-25T17:46:20.823Z,3.10
2023-05-25T17:49:14.814Z,3.20
2023-05-25T17:52:24.718Z,3.20
2023-05-25T17:55:06.136Z,2.60
2023-05-25T17:58:09.754Z,2.50
2023-05-25T18:00:52.581Z,2.90
2023-05-25T18:03:30.518Z,2.80
2023-05-25T18:09:13.043Z,3.50
2023-05-25T18:12:01.069Z,3.30
2023-05-25T18:14:40.894Z,4.10
2023-05-25T18:17:16.128Z,3.60
2023-05-25T18:19:56.053Z,2.80
2023-05-25T18:22:37.829Z,3.30
2023-05-25T18:25:16.221Z,3.60
2023-05-25T18:28:00.459Z,2.90
2023-05-25T18:31:30.481Z,3.10
2023-05-25T18:39:16.718Z,3.30
2023-05-25T18:43:07.451Z,3.20
2023-05-25T18:47:00.749Z,3.80
2023-05-25T18:49:37.687Z,4.30
2023-05-25T18:52:24.983Z,4.40
2023-05-25T18:55:32.318Z,3.90
2023-05-25T18:58:18.178Z,3.90
2023-05-25T19:02:38.142Z,3.40
2023-05-25T19:05:53.818Z,3.40
2023-05-25T19:10:16.189Z,4.20
2023-05-25T19:13:51.796Z,4.20
2023-05-25T19:16:48.162Z,3.60
2023-05-25T19:20:25.586Z,3.20
2023-05-25T21:57:04.386Z,4.20
2023-05-25T22:04:03.560Z,4.60
